| Date | Time | Temp. (oF) | Dew Point (oF) | Rel. Hum. (%) | Press. (in.) | Wind Dir. (deg.) | Wind Speed (mph) | Hourly Rainfall (i n.) |
|
|---|---|---|---|---|---|---|---|---|---|
| 1 | 09/24 | 24:00 | 60 | 50 | 72 | 30.18 | 310 | 1 | 0.00 |
| 2 | 09/23 | 23:00 | 58 | 52 | 81 | 30.18 | 150 | 0 | 0.00 |
| 3 | 09/23 | 22:00 | 58 | 51 | 78 | 30.19 | 150 | 0 | 0.00 |
| 4 | 09/23 | 21:00 | 60 | 51 | 73 | 30.18 | 150 | 0 | 0.00 |
| 5 | 09/23 | 20:00 | 62 | 52 | 70 | 30.19 | 150 | 0 | 0.00 |
| 6 | 09/23 | 19:00 | 67 | 52 | 60 | 30.23 | 150 | 1 | 0.00 |
| 7 | 09/23 | 18:00 | 70 | 51 | 53 | 30.26 | 150 | 4 | 0.00 |
| 8 | 09/23 | 17:00 | 71 | 50 | 49 | 30.24 | 250 | 4 | 0.00 |
| 9 | 09/23 | 16:00 | 71 | 49 | 47 | 30.23 | 310 | 6 | 0.00 |
| 10 | 09/23 | 15:00 | 71 | 50 | 48 | 30.20 | 130 | 6 | 0.00 |
| 11 | 09/23 | 14:00 | 70 | 48 | 47 | 30.18 | 310 | 6 | 0.00 |
| 12 | 09/23 | 13:00 | 69 | 49 | 50 | 30.17 | 310 | 4 | 0.00 |
| 13 | 09/23 | 12:00 | 66 | 46 | 49 | 30.17 | 270 | 10 | 0.00 |
| 14 | 09/23 | 11:00 | 62 | 45 | 55 | 30.17 | 290 | 9 | 0.00 |
| 15 | 09/23 | 10:00 | 58 | 44 | 60 | 30.16 | 290 | 7 | 0.00 |
| 16 | 09/23 | 09:00 | 54 | 44 | 70 | 30.07 | 300 | 4 | 0.00 |
| 17 | 09/23 | 08:00 | 50 | 43 | 79 | 30.06 | 270 | 2 | 0.00 |
| 18 | 09/23 | 07:00 | 49 | 43 | 82 | 30.04 | 270 | 0 | 0.00 |
| 19 | 09/23 | 06:00 | 50 | 42 | 75 | 30.03 | 270 | 2 | 0.00 |
| 20 | 09/23 | 05:00 | 50 | 42 | 76 | 30.03 | 270 | 0 | 0.00 |
| 21 | 09/23 | 04:00 | 50 | 42 | 76 | 30.03 | 330 | 0 | 0.00 |
| 22 | 09/23 | 03:00 | 50 | 44 | 80 | 30.05 | 330 | 1 | 0.00 |
| 23 | 09/23 | 02:00 | 50 | 44 | 81 | 30.04 | 330 | 0 | 0.00 |
| 24 | 09/23 | 01:00 | 51 | 42 | 73 | 30.03 | 330 | 1 | 0.00 |